sensor_id;sensor_type;location;lat;lon;timestamp;P1;durP1;ratioP1;P2;durP2;ratioP2
54923;SDS011;40825;52.270;20.984;2023-08-30T00:00:34;27.00;;;18.10;;
54923;SDS011;40825;52.270;20.984;2023-08-30T00:03:20;27.50;;;18.10;;
54923;SDS011;40825;52.270;20.984;2023-08-30T00:05:45;29.40;;;16.70;;
54923;SDS011;40825;52.270;20.984;2023-08-30T00:08:11;27.20;;;18.40;;
54923;SDS011;40825;52.270;20.984;2023-08-30T00:10:38;26.40;;;17.30;;
54923;SDS011;40825;52.270;20.984;2023-08-30T00:13:04;28.50;;;18.20;;
54923;SDS011;40825;52.270;20.984;2023-08-30T00:15:29;29.80;;;18.50;;
54923;SDS011;40825;52.270;20.984;2023-08-30T00:17:55;26.40;;;18.10;;
54923;SDS011;40825;52.270;20.984;2023-08-30T00:20:20;31.70;;;20.00;;
54923;SDS011;40825;52.270;20.984;2023-08-30T00:22:47;30.60;;;18.60;;
54923;SDS011;40825;52.270;20.984;2023-08-30T00:25:14;28.60;;;18.10;;
54923;SDS011;40825;52.270;20.984;2023-08-30T00:27:40;29.80;;;19.40;;
54923;SDS011;40825;52.270;20.984;2023-08-30T00:30:06;29.80;;;19.50;;
54923;SDS011;40825;52.270;20.984;2023-08-30T00:32:34;28.90;;;19.10;;
54923;SDS011;40825;52.270;20.984;2023-08-30T00:35:00;29.20;;;19.00;;
54923;SDS011;40825;52.270;20.984;2023-08-30T00:37:26;30.20;;;18.50;;
54923;SDS011;40825;52.270;20.984;2023-08-30T00:39:51;29.70;;;17.50;;
54923;SDS011;40825;52.270;20.984;2023-08-30T00:42:16;32.00;;;19.00;;
54923;SDS011;40825;52.270;20.984;2023-08-30T00:44:42;31.90;;;18.30;;
54923;SDS011;40825;52.270;20.984;2023-08-30T00:47:07;30.20;;;18.10;;
54923;SDS011;40825;52.270;20.984;2023-08-30T00:49:33;34.00;;;19.30;;
54923;SDS011;40825;52.270;20.984;2023-08-30T00:52:02;29.20;;;17.10;;
54923;SDS011;40825;52.270;20.984;2023-08-30T00:54:31;31.60;;;19.10;;
54923;SDS011;40825;52.270;20.984;2023-08-30T00:56:57;34.70;;;20.80;;
54923;SDS011;40825;52.270;20.984;2023-08-30T00:59:23;29.30;;;18.70;;
54923;SDS011;40825;52.270;20.984;2023-08-30T01:01:49;32.70;;;20.20;;
54923;SDS011;40825;52.270;20.984;2023-08-30T01:04:16;34.30;;;21.10;;
54923;SDS011;40825;52.270;20.984;2023-08-30T01:06:41;33.30;;;20.90;;
54923;SDS011;40825;52.270;20.984;2023-08-30T01:09:07;30.40;;;18.00;;
54923;SDS011;40825;52.270;20.984;2023-08-30T01:11:45;35.60;;;20.80;;
54923;SDS011;40825;52.270;20.984;2023-08-30T01:14:18;31.90;;;18.70;;
54923;SDS011;40825;52.270;20.984;2023-08-30T01:16:47;32.20;;;21.10;;
54923;SDS011;40825;52.270;20.984;2023-08-30T01:19:20;29.40;;;21.30;;
54923;SDS011;40825;52.270;20.984;2023-08-30T01:24:52;26.10;;;19.00;;
54923;SDS011;40825;52.270;20.984;2023-08-30T01:27:30;27.10;;;17.30;;
54923;SDS011;40825;52.270;20.984;2023-08-30T01:30:00;27.00;;;18.10;;
54923;SDS011;40825;52.270;20.984;2023-08-30T01:32:27;25.50;;;17.50;;
54923;SDS011;40825;52.270;20.984;2023-08-30T01:34:54;24.70;;;16.60;;
54923;SDS011;40825;52.270;20.984;2023-08-30T01:37:20;24.90;;;16.70;;
54923;SDS011;40825;52.270;20.984;2023-08-30T01:39:46;23.50;;;16.70;;
54923;SDS011;40825;52.270;20.984;2023-08-30T01:42:13;21.50;;;15.20;;
54923;SDS011;40825;52.270;20.984;2023-08-30T01:44:40;25.30;;;15.50;;
54923;SDS011;40825;52.270;20.984;2023-08-30T01:47:09;24.40;;;16.00;;
54923;SDS011;40825;52.270;20.984;2023-08-30T01:49:36;23.20;;;15.00;;
54923;SDS011;40825;52.270;20.984;2023-08-30T01:52:03;23.30;;;15.20;;
54923;SDS011;40825;52.270;20.984;2023-08-30T01:54:28;22.50;;;15.00;;
54923;SDS011;40825;52.270;20.984;2023-08-30T01:56:55;24.10;;;16.00;;
54923;SDS011;40825;52.270;20.984;2023-08-30T01:59:23;24.00;;;15.40;;
54923;SDS011;40825;52.270;20.984;2023-08-30T02:01:49;24.70;;;16.30;;
54923;SDS011;40825;52.270;20.984;2023-08-30T02:04:16;22.40;;;15.60;;
54923;SDS011;40825;52.270;20.984;2023-08-30T02:09:48;25.30;;;16.10;;
54923;SDS011;40825;52.270;20.984;2023-08-30T02:12:16;21.90;;;14.40;;
54923;SDS011;40825;52.270;20.984;2023-08-30T02:14:44;22.10;;;14.90;;
54923;SDS011;40825;52.270;20.984;2023-08-30T02:17:12;25.60;;;15.80;;
54923;SDS011;40825;52.270;20.984;2023-08-30T02:19:39;24.20;;;15.00;;
54923;SDS011;40825;52.270;20.984;2023-08-30T02:22:05;24.30;;;15.90;;
54923;SDS011;40825;52.270;20.984;2023-08-30T02:24:30;24.70;;;17.10;;
54923;SDS011;40825;52.270;20.984;2023-08-30T02:26:56;25.40;;;17.20;;
54923;SDS011;40825;52.270;20.984;2023-08-30T02:29:21;25.70;;;16.40;;
54923;SDS011;40825;52.270;20.984;2023-08-30T02:31:47;25.80;;;15.40;;
54923;SDS011;40825;52.270;20.984;2023-08-30T02:34:12;27.80;;;17.00;;
54923;SDS011;40825;52.270;20.984;2023-08-30T02:36:38;25.10;;;15.70;;
54923;SDS011;40825;52.270;20.984;2023-08-30T02:39:03;27.50;;;16.00;;
54923;SDS011;40825;52.270;20.984;2023-08-30T02:41:29;26.40;;;16.30;;
54923;SDS011;40825;52.270;20.984;2023-08-30T02:43:54;27.00;;;16.60;;
54923;SDS011;40825;52.270;20.984;2023-08-30T02:46:19;27.20;;;16.80;;
54923;SDS011;40825;52.270;20.984;2023-08-30T02:48:45;25.90;;;16.90;;
54923;SDS011;40825;52.270;20.984;2023-08-30T02:51:10;26.90;;;15.80;;
54923;SDS011;40825;52.270;20.984;2023-08-30T02:53:36;28.00;;;16.90;;
54923;SDS011;40825;52.270;20.984;2023-08-30T02:56:01;24.70;;;15.50;;
54923;SDS011;40825;52.270;20.984;2023-08-30T02:58:27;27.80;;;18.10;;
54923;SDS011;40825;52.270;20.984;2023-08-30T03:00:52;27.30;;;16.50;;
54923;SDS011;40825;52.270;20.984;2023-08-30T03:03:18;31.00;;;17.50;;
54923;SDS011;40825;52.270;20.984;2023-08-30T03:05:44;30.10;;;18.00;;
54923;SDS011;40825;52.270;20.984;2023-08-30T03:08:09;28.40;;;17.10;;
54923;SDS011;40825;52.270;20.984;2023-08-30T03:10:35;29.40;;;16.90;;
54923;SDS011;40825;52.270;20.984;2023-08-30T03:13:02;27.70;;;17.20;;
54923;SDS011;40825;52.270;20.984;2023-08-30T03:15:30;29.50;;;18.40;;
54923;SDS011;40825;52.270;20.984;2023-08-30T03:17:56;27.50;;;16.80;;
54923;SDS011;40825;52.270;20.984;2023-08-30T03:20:22;31.30;;;18.80;;
54923;SDS011;40825;52.270;20.984;2023-08-30T03:22:47;27.80;;;17.30;;
54923;SDS011;40825;52.270;20.984;2023-08-30T03:25:13;30.60;;;18.40;;
54923;SDS011;40825;52.270;20.984;2023-08-30T03:27:38;30.00;;;18.20;;
54923;SDS011;40825;52.270;20.984;2023-08-30T03:30:04;28.50;;;17.10;;
54923;SDS011;40825;52.270;20.984;2023-08-30T03:32:31;29.40;;;17.80;;
54923;SDS011;40825;52.270;20.984;2023-08-30T03:34:57;32.40;;;18.70;;
54923;SDS011;40825;52.270;20.984;2023-08-30T03:37:23;28.90;;;17.10;;
54923;SDS011;40825;52.270;20.984;2023-08-30T03:39:48;28.00;;;17.50;;
54923;SDS011;40825;52.270;20.984;2023-08-30T03:42:14;29.10;;;17.50;;
54923;SDS011;40825;52.270;20.984;2023-08-30T03:44:39;29.50;;;18.00;;
54923;SDS011;40825;52.270;20.984;2023-08-30T03:47:05;27.60;;;16.90;;
54923;SDS011;40825;52.270;20.984;2023-08-30T03:49:31;30.00;;;17.70;;
54923;SDS011;40825;52.270;20.984;2023-08-30T03:51:56;26.90;;;17.50;;
54923;SDS011;40825;52.270;20.984;2023-08-30T03:54:22;29.50;;;16.80;;
54923;SDS011;40825;52.270;20.984;2023-08-30T03:56:47;28.70;;;16.70;;
54923;SDS011;40825;52.270;20.984;2023-08-30T03:59:12;31.50;;;17.30;;
54923;SDS011;40825;52.270;20.984;2023-08-30T04:01:38;31.40;;;17.50;;
54923;SDS011;40825;52.270;20.984;2023-08-30T04:04:03;30.50;;;17.30;;
54923;SDS011;40825;52.270;20.984;2023-08-30T04:06:30;30.70;;;17.70;;
54923;SDS011;40825;52.270;20.984;2023-08-30T04:08:55;33.80;;;18.90;;
54923;SDS011;40825;52.270;20.984;2023-08-30T04:11:22;30.90;;;18.30;;
54923;SDS011;40825;52.270;20.984;2023-08-30T04:13:47;34.40;;;19.30;;
54923;SDS011;40825;52.270;20.984;2023-08-30T04:16:13;32.80;;;18.70;;
54923;SDS011;40825;52.270;20.984;2023-08-30T04:18:38;35.30;;;18.90;;
54923;SDS011;40825;52.270;20.984;2023-08-30T04:21:04;28.20;;;16.90;;
54923;SDS011;40825;52.270;20.984;2023-08-30T04:23:31;31.30;;;17.70;;
54923;SDS011;40825;52.270;20.984;2023-08-30T04:25:57;31.70;;;18.80;;
54923;SDS011;40825;52.270;20.984;2023-08-30T04:28:22;30.50;;;17.30;;
54923;SDS011;40825;52.270;20.984;2023-08-30T04:30:48;27.70;;;15.90;;
54923;SDS011;40825;52.270;20.984;2023-08-30T04:33:13;28.40;;;16.70;;
54923;SDS011;40825;52.270;20.984;2023-08-30T04:35:39;28.50;;;17.40;;
54923;SDS011;40825;52.270;20.984;2023-08-30T04:38:04;28.10;;;16.10;;
54923;SDS011;40825;52.270;20.984;2023-08-30T04:40:30;25.40;;;16.80;;
54923;SDS011;40825;52.270;20.984;2023-08-30T04:42:56;27.00;;;15.60;;
54923;SDS011;40825;52.270;20.984;2023-08-30T04:45:22;28.10;;;15.30;;
54923;SDS011;40825;52.270;20.984;2023-08-30T04:47:48;27.30;;;16.40;;
54923;SDS011;40825;52.270;20.984;2023-08-30T04:50:14;29.90;;;15.70;;
54923;SDS011;40825;52.270;20.984;2023-08-30T04:52:39;28.40;;;18.10;;
54923;SDS011;40825;52.270;20.984;2023-08-30T04:55:05;27.20;;;14.30;;
54923;SDS011;40825;52.270;20.984;2023-08-30T04:57:31;27.80;;;15.30;;
54923;SDS011;40825;52.270;20.984;2023-08-30T04:59:57;26.70;;;16.70;;
54923;SDS011;40825;52.270;20.984;2023-08-30T05:02:22;26.50;;;14.40;;
54923;SDS011;40825;52.270;20.984;2023-08-30T05:04:48;26.50;;;14.00;;
54923;SDS011;40825;52.270;20.984;2023-08-30T05:07:13;27.30;;;15.40;;
54923;SDS011;40825;52.270;20.984;2023-08-30T05:09:39;27.00;;;15.60;;
54923;SDS011;40825;52.270;20.984;2023-08-30T05:12:05;25.80;;;14.90;;
54923;SDS011;40825;52.270;20.984;2023-08-30T05:14:32;27.20;;;16.00;;
54923;SDS011;40825;52.270;20.984;2023-08-30T05:16:57;28.20;;;16.20;;
54923;SDS011;40825;52.270;20.984;2023-08-30T05:19:23;30.10;;;16.40;;
54923;SDS011;40825;52.270;20.984;2023-08-30T05:21:48;27.10;;;15.40;;
54923;SDS011;40825;52.270;20.984;2023-08-30T05:26:42;28.40;;;15.60;;
54923;SDS011;40825;52.270;20.984;2023-08-30T05:29:07;25.00;;;13.20;;
54923;SDS011;40825;52.270;20.984;2023-08-30T05:31:33;24.80;;;14.60;;
54923;SDS011;40825;52.270;20.984;2023-08-30T05:33:58;24.30;;;13.90;;
54923;SDS011;40825;52.270;20.984;2023-08-30T05:36:24;25.20;;;14.40;;
54923;SDS011;40825;52.270;20.984;2023-08-30T05:38:49;26.90;;;13.10;;
54923;SDS011;40825;52.270;20.984;2023-08-30T05:41:15;24.50;;;14.20;;
54923;SDS011;40825;52.270;20.984;2023-08-30T05:43:40;24.00;;;13.50;;
54923;SDS011;40825;52.270;20.984;2023-08-30T05:46:06;24.20;;;15.20;;
54923;SDS011;40825;52.270;20.984;2023-08-30T05:48:37;22.40;;;14.40;;
54923;SDS011;40825;52.270;20.984;2023-08-30T05:51:02;29.10;;;13.70;;
54923;SDS011;40825;52.270;20.984;2023-08-30T05:53:28;24.50;;;15.20;;
54923;SDS011;40825;52.270;20.984;2023-08-30T05:55:53;25.10;;;14.10;;
54923;SDS011;40825;52.270;20.984;2023-08-30T05:58:19;24.10;;;15.10;;
54923;SDS011;40825;52.270;20.984;2023-08-30T06:00:44;28.10;;;14.50;;
54923;SDS011;40825;52.270;20.984;2023-08-30T06:03:10;26.70;;;14.40;;
54923;SDS011;40825;52.270;20.984;2023-08-30T06:05:36;24.50;;;15.80;;
54923;SDS011;40825;52.270;20.984;2023-08-30T06:08:01;25.60;;;14.30;;
54923;SDS011;40825;52.270;20.984;2023-08-30T06:10:27;26.30;;;14.80;;
54923;SDS011;40825;52.270;20.984;2023-08-30T06:12:53;26.40;;;14.00;;
54923;SDS011;40825;52.270;20.984;2023-08-30T06:15:19;27.10;;;14.50;;
54923;SDS011;40825;52.270;20.984;2023-08-30T06:17:44;25.90;;;15.50;;
54923;SDS011;40825;52.270;20.984;2023-08-30T06:20:11;28.00;;;15.60;;
54923;SDS011;40825;52.270;20.984;2023-08-30T06:22:37;28.20;;;15.50;;
54923;SDS011;40825;52.270;20.984;2023-08-30T06:25:03;27.70;;;15.50;;
54923;SDS011;40825;52.270;20.984;2023-08-30T06:27:29;28.20;;;15.50;;
54923;SDS011;40825;52.270;20.984;2023-08-30T06:29:55;31.10;;;16.60;;
54923;SDS011;40825;52.270;20.984;2023-08-30T06:32:20;26.90;;;15.90;;
54923;SDS011;40825;52.270;20.984;2023-08-30T06:34:46;28.30;;;15.20;;
54923;SDS011;40825;52.270;20.984;2023-08-30T06:37:11;29.10;;;15.30;;
54923;SDS011;40825;52.270;20.984;2023-08-30T06:39:37;30.70;;;15.90;;
54923;SDS011;40825;52.270;20.984;2023-08-30T06:42:03;30.80;;;15.50;;
54923;SDS011;40825;52.270;20.984;2023-08-30T06:44:29;27.30;;;16.60;;
54923;SDS011;40825;52.270;20.984;2023-08-30T06:46:57;28.70;;;16.40;;
54923;SDS011;40825;52.270;20.984;2023-08-30T06:49:23;32.70;;;17.40;;
54923;SDS011;40825;52.270;20.984;2023-08-30T06:51:49;31.20;;;16.30;;
54923;SDS011;40825;52.270;20.984;2023-08-30T06:54:15;29.50;;;18.00;;
54923;SDS011;40825;52.270;20.984;2023-08-30T06:56:40;29.60;;;17.10;;
54923;SDS011;40825;52.270;20.984;2023-08-30T06:59:05;27.90;;;15.90;;
54923;SDS011;40825;52.270;20.984;2023-08-30T07:01:31;29.10;;;17.10;;
54923;SDS011;40825;52.270;20.984;2023-08-30T07:03:56;32.40;;;17.20;;
54923;SDS011;40825;52.270;20.984;2023-08-30T07:06:22;31.10;;;17.40;;
54923;SDS011;40825;52.270;20.984;2023-08-30T07:08:48;30.30;;;16.60;;
54923;SDS011;40825;52.270;20.984;2023-08-30T07:11:13;30.90;;;16.80;;
54923;SDS011;40825;52.270;20.984;2023-08-30T07:13:39;31.90;;;17.80;;
54923;SDS011;40825;52.270;20.984;2023-08-30T07:16:04;33.70;;;17.60;;
54923;SDS011;40825;52.270;20.984;2023-08-30T07:18:30;32.30;;;17.90;;
54923;SDS011;40825;52.270;20.984;2023-08-30T07:20:55;29.60;;;16.60;;
54923;SDS011;40825;52.270;20.984;2023-08-30T07:23:21;30.20;;;16.00;;
54923;SDS011;40825;52.270;20.984;2023-08-30T07:25:46;30.20;;;17.80;;
54923;SDS011;40825;52.270;20.984;2023-08-30T07:28:12;30.90;;;18.40;;
54923;SDS011;40825;52.270;20.984;2023-08-30T07:30:37;35.00;;;18.10;;
54923;SDS011;40825;52.270;20.984;2023-08-30T07:33:03;36.70;;;17.90;;
54923;SDS011;40825;52.270;20.984;2023-08-30T07:35:30;33.70;;;19.20;;
54923;SDS011;40825;52.270;20.984;2023-08-30T07:37:56;36.90;;;20.20;;
54923;SDS011;40825;52.270;20.984;2023-08-30T07:40:21;35.80;;;20.10;;
54923;SDS011;40825;52.270;20.984;2023-08-30T07:42:51;33.10;;;19.00;;
54923;SDS011;40825;52.270;20.984;2023-08-30T07:45:17;34.10;;;19.40;;
54923;SDS011;40825;52.270;20.984;2023-08-30T07:47:43;38.00;;;21.10;;
54923;SDS011;40825;52.270;20.984;2023-08-30T07:50:08;39.10;;;22.80;;
54923;SDS011;40825;52.270;20.984;2023-08-30T07:52:34;36.70;;;18.80;;
54923;SDS011;40825;52.270;20.984;2023-08-30T07:54:59;40.50;;;20.50;;
54923;SDS011;40825;52.270;20.984;2023-08-30T07:57:25;41.10;;;20.90;;
54923;SDS011;40825;52.270;20.984;2023-08-30T07:59:50;40.90;;;20.60;;
54923;SDS011;40825;52.270;20.984;2023-08-30T08:02:16;38.60;;;20.60;;
54923;SDS011;40825;52.270;20.984;2023-08-30T08:04:41;39.40;;;22.70;;
54923;SDS011;40825;52.270;20.984;2023-08-30T08:07:08;44.30;;;23.20;;
54923;SDS011;40825;52.270;20.984;2023-08-30T08:09:33;42.90;;;22.10;;
54923;SDS011;40825;52.270;20.984;2023-08-30T08:11:59;35.70;;;19.30;;
54923;SDS011;40825;52.270;20.984;2023-08-30T08:14:25;40.70;;;21.00;;
54923;SDS011;40825;52.270;20.984;2023-08-30T08:16:50;38.70;;;22.80;;
54923;SDS011;40825;52.270;20.984;2023-08-30T08:19:16;41.90;;;23.60;;
54923;SDS011;40825;52.270;20.984;2023-08-30T08:21:41;41.50;;;22.10;;
54923;SDS011;40825;52.270;20.984;2023-08-30T08:24:07;42.30;;;22.90;;
54923;SDS011;40825;52.270;20.984;2023-08-30T08:26:33;40.60;;;21.50;;
54923;SDS011;40825;52.270;20.984;2023-08-30T08:28:58;41.90;;;20.50;;
54923;SDS011;40825;52.270;20.984;2023-08-30T08:31:24;37.90;;;20.50;;
54923;SDS011;40825;52.270;20.984;2023-08-30T08:33:50;36.00;;;20.10;;
54923;SDS011;40825;52.270;20.984;2023-08-30T08:36:18;34.20;;;19.50;;
54923;SDS011;40825;52.270;20.984;2023-08-30T08:38:44;34.80;;;19.30;;
54923;SDS011;40825;52.270;20.984;2023-08-30T08:41:11;34.90;;;19.70;;
54923;SDS011;40825;52.270;20.984;2023-08-30T08:43:40;34.90;;;18.10;;
54923;SDS011;40825;52.270;20.984;2023-08-30T08:46:07;29.80;;;17.40;;
54923;SDS011;40825;52.270;20.984;2023-08-30T08:48:39;29.00;;;16.60;;
54923;SDS011;40825;52.270;20.984;2023-08-30T08:51:06;31.00;;;17.40;;
54923;SDS011;40825;52.270;20.984;2023-08-30T08:53:32;29.60;;;16.60;;
54923;SDS011;40825;52.270;20.984;2023-08-30T08:55:58;32.10;;;16.90;;
54923;SDS011;40825;52.270;20.984;2023-08-30T08:58:25;25.00;;;15.70;;
54923;SDS011;40825;52.270;20.984;2023-08-30T09:00:52;25.60;;;14.70;;
54923;SDS011;40825;52.270;20.984;2023-08-30T09:03:18;25.50;;;14.00;;
54923;SDS011;40825;52.270;20.984;2023-08-30T09:05:44;23.60;;;12.70;;
54923;SDS011;40825;52.270;20.984;2023-08-30T09:08:11;20.30;;;11.80;;
54923;SDS011;40825;52.270;20.984;2023-08-30T09:10:38;23.10;;;13.10;;
54923;SDS011;40825;52.270;20.984;2023-08-30T09:13:05;25.10;;;13.40;;
54923;SDS011;40825;52.270;20.984;2023-08-30T09:15:31;23.10;;;13.40;;
54923;SDS011;40825;52.270;20.984;2023-08-30T09:17:57;26.10;;;14.00;;
54923;SDS011;40825;52.270;20.984;2023-08-30T09:20:23;21.70;;;12.60;;
54923;SDS011;40825;52.270;20.984;2023-08-30T09:22:49;22.00;;;12.50;;
54923;SDS011;40825;52.270;20.984;2023-08-30T09:25:27;23.00;;;12.10;;
54923;SDS011;40825;52.270;20.984;2023-08-30T09:27:56;19.70;;;11.00;;
54923;SDS011;40825;52.270;20.984;2023-08-30T09:30:24;17.90;;;10.40;;
54923;SDS011;40825;52.270;20.984;2023-08-30T09:32:50;14.40;;;7.90;;
54923;SDS011;40825;52.270;20.984;2023-08-30T09:35:16;12.40;;;7.20;;
54923;SDS011;40825;52.270;20.984;2023-08-30T09:37:44;13.40;;;7.40;;
54923;SDS011;40825;52.270;20.984;2023-08-30T09:40:10;13.30;;;7.70;;
54923;SDS011;40825;52.270;20.984;2023-08-30T09:42:42;10.40;;;5.80;;
54923;SDS011;40825;52.270;20.984;2023-08-30T09:45:17;10.60;;;6.20;;
54923;SDS011;40825;52.270;20.984;2023-08-30T09:47:46;10.90;;;5.90;;
54923;SDS011;40825;52.270;20.984;2023-08-30T09:50:13;9.60;;;5.00;;
54923;SDS011;40825;52.270;20.984;2023-08-30T09:52:42;10.10;;;5.40;;
54923;SDS011;40825;52.270;20.984;2023-08-30T09:55:08;11.40;;;6.50;;
54923;SDS011;40825;52.270;20.984;2023-08-30T09:57:34;10.80;;;6.20;;
54923;SDS011;40825;52.270;20.984;2023-08-30T10:00:01;13.40;;;6.90;;
54923;SDS011;40825;52.270;20.984;2023-08-30T10:02:30;15.30;;;8.00;;
54923;SDS011;40825;52.270;20.984;2023-08-30T10:05:00;13.70;;;8.00;;
54923;SDS011;40825;52.270;20.984;2023-08-30T10:07:25;15.80;;;8.10;;
54923;SDS011;40825;52.270;20.984;2023-08-30T10:09:51;16.50;;;8.90;;
54923;SDS011;40825;52.270;20.984;2023-08-30T10:17:41;22.10;;;11.10;;
54923;SDS011;40825;52.270;20.984;2023-08-30T10:20:10;20.60;;;10.60;;
54923;SDS011;40825;52.270;20.984;2023-08-30T10:22:37;19.40;;;10.70;;
54923;SDS011;40825;52.270;20.984;2023-08-30T10:25:08;15.80;;;9.60;;
54923;SDS011;40825;52.270;20.984;2023-08-30T10:27:37;16.80;;;9.40;;
54923;SDS011;40825;52.270;20.984;2023-08-30T10:30:06;17.60;;;9.80;;
54923;SDS011;40825;52.270;20.984;2023-08-30T10:32:41;18.50;;;10.60;;
54923;SDS011;40825;52.270;20.984;2023-08-30T10:35:10;18.80;;;10.60;;
54923;SDS011;40825;52.270;20.984;2023-08-30T10:37:39;16.80;;;10.30;;
54923;SDS011;40825;52.270;20.984;2023-08-30T10:40:05;16.20;;;9.10;;
54923;SDS011;40825;52.270;20.984;2023-08-30T10:42:34;16.00;;;9.00;;
54923;SDS011;40825;52.270;20.984;2023-08-30T10:45:01;17.80;;;10.70;;
54923;SDS011;40825;52.270;20.984;2023-08-30T10:47:34;17.40;;;9.20;;
54923;SDS011;40825;52.270;20.984;2023-08-30T10:50:12;19.60;;;10.90;;
54923;SDS011;40825;52.270;20.984;2023-08-30T10:52:38;22.00;;;9.70;;
54923;SDS011;40825;52.270;20.984;2023-08-30T10:55:07;18.20;;;8.90;;
54923;SDS011;40825;52.270;20.984;2023-08-30T10:57:34;15.00;;;8.90;;
54923;SDS011;40825;52.270;20.984;2023-08-30T11:00:19;14.70;;;8.50;;
54923;SDS011;40825;52.270;20.984;2023-08-30T11:02:48;27.00;;;9.00;;
54923;SDS011;40825;52.270;20.984;2023-08-30T11:05:15;16.00;;;7.40;;
54923;SDS011;40825;52.270;20.984;2023-08-30T11:07:42;15.20;;;8.20;;
54923;SDS011;40825;52.270;20.984;2023-08-30T11:10:11;16.30;;;7.40;;
54923;SDS011;40825;52.270;20.984;2023-08-30T11:12:41;15.50;;;8.20;;
54923;SDS011;40825;52.270;20.984;2023-08-30T11:15:12;15.60;;;8.20;;
54923;SDS011;40825;52.270;20.984;2023-08-30T11:23:46;13.80;;;7.80;;
54923;SDS011;40825;52.270;20.984;2023-08-30T11:26:16;12.70;;;7.10;;
54923;SDS011;40825;52.270;20.984;2023-08-30T11:28:42;14.70;;;8.30;;
54923;SDS011;40825;52.270;20.984;2023-08-30T11:31:23;13.30;;;6.70;;
54923;SDS011;40825;52.270;20.984;2023-08-30T11:33:53;11.70;;;5.90;;
54923;SDS011;40825;52.270;20.984;2023-08-30T11:36:23;20.80;;;8.30;;
54923;SDS011;40825;52.270;20.984;2023-08-30T11:38:56;14.80;;;7.90;;
54923;SDS011;40825;52.270;20.984;2023-08-30T11:41:23;16.60;;;8.00;;
54923;SDS011;40825;52.270;20.984;2023-08-30T11:43:50;18.80;;;8.40;;
54923;SDS011;40825;52.270;20.984;2023-08-30T11:46:17;17.50;;;8.80;;
54923;SDS011;40825;52.270;20.984;2023-08-30T11:48:43;20.60;;;10.30;;
54923;SDS011;40825;52.270;20.984;2023-08-30T11:51:10;15.70;;;8.50;;
54923;SDS011;40825;52.270;20.984;2023-08-30T11:53:37;16.30;;;8.30;;
54923;SDS011;40825;52.270;20.984;2023-08-30T11:56:04;17.50;;;9.10;;
54923;SDS011;40825;52.270;20.984;2023-08-30T11:58:34;18.10;;;9.20;;
54923;SDS011;40825;52.270;20.984;2023-08-30T12:01:01;17.10;;;8.30;;
54923;SDS011;40825;52.270;20.984;2023-08-30T12:03:27;17.20;;;9.10;;
54923;SDS011;40825;52.270;20.984;2023-08-30T12:05:54;17.50;;;9.40;;
54923;SDS011;40825;52.270;20.984;2023-08-30T12:08:20;16.50;;;8.20;;
54923;SDS011;40825;52.270;20.984;2023-08-30T12:10:49;17.10;;;8.30;;
54923;SDS011;40825;52.270;20.984;2023-08-30T12:13:25;16.70;;;9.30;;
54923;SDS011;40825;52.270;20.984;2023-08-30T12:15:51;15.30;;;7.90;;
54923;SDS011;40825;52.270;20.984;2023-08-30T12:18:25;15.70;;;8.60;;
54923;SDS011;40825;52.270;20.984;2023-08-30T12:23:21;14.80;;;8.10;;
54923;SDS011;40825;52.270;20.984;2023-08-30T12:28:25;16.80;;;9.00;;
54923;SDS011;40825;52.270;20.984;2023-08-30T12:30:54;17.20;;;8.00;;
54923;SDS011;40825;52.270;20.984;2023-08-30T12:33:20;14.70;;;7.30;;
54923;SDS011;40825;52.270;20.984;2023-08-30T12:35:47;15.60;;;7.60;;
54923;SDS011;40825;52.270;20.984;2023-08-30T12:38:13;15.80;;;7.70;;
54923;SDS011;40825;52.270;20.984;2023-08-30T12:40:43;21.60;;;7.70;;
54923;SDS011;40825;52.270;20.984;2023-08-30T12:43:15;16.80;;;8.10;;
54923;SDS011;40825;52.270;20.984;2023-08-30T12:45:42;18.70;;;8.30;;
54923;SDS011;40825;52.270;20.984;2023-08-30T12:48:10;18.40;;;8.20;;
54923;SDS011;40825;52.270;20.984;2023-08-30T12:50:37;19.10;;;8.00;;
54923;SDS011;40825;52.270;20.984;2023-08-30T12:53:03;35.40;;;9.90;;
54923;SDS011;40825;52.270;20.984;2023-08-30T12:55:30;24.80;;;9.60;;
54923;SDS011;40825;52.270;20.984;2023-08-30T12:57:55;22.10;;;9.20;;
54923;SDS011;40825;52.270;20.984;2023-08-30T13:00:22;24.50;;;9.50;;
54923;SDS011;40825;52.270;20.984;2023-08-30T13:02:48;23.00;;;10.50;;
54923;SDS011;40825;52.270;20.984;2023-08-30T13:05:14;21.50;;;10.80;;
54923;SDS011;40825;52.270;20.984;2023-08-30T13:07:39;23.50;;;10.60;;
54923;SDS011;40825;52.270;20.984;2023-08-30T13:10:05;31.40;;;12.50;;
54923;SDS011;40825;52.270;20.984;2023-08-30T13:12:32;30.20;;;14.20;;
54923;SDS011;40825;52.270;20.984;2023-08-30T13:14:57;25.90;;;12.30;;
54923;SDS011;40825;52.270;20.984;2023-08-30T13:17:23;24.90;;;11.40;;
54923;SDS011;40825;52.270;20.984;2023-08-30T13:19:48;26.90;;;13.00;;
54923;SDS011;40825;52.270;20.984;2023-08-30T13:22:14;30.20;;;13.80;;
54923;SDS011;40825;52.270;20.984;2023-08-30T13:24:40;33.00;;;13.90;;
54923;SDS011;40825;52.270;20.984;2023-08-30T13:27:06;39.50;;;15.50;;
54923;SDS011;40825;52.270;20.984;2023-08-30T13:29:31;30.80;;;14.70;;
54923;SDS011;40825;52.270;20.984;2023-08-30T13:31:57;32.00;;;14.70;;
54923;SDS011;40825;52.270;20.984;2023-08-30T13:34:22;27.40;;;13.90;;
54923;SDS011;40825;52.270;20.984;2023-08-30T13:36:48;27.80;;;13.90;;
54923;SDS011;40825;52.270;20.984;2023-08-30T13:39:13;25.10;;;12.60;;
54923;SDS011;40825;52.270;20.984;2023-08-30T13:41:40;27.60;;;14.60;;
54923;SDS011;40825;52.270;20.984;2023-08-30T13:44:05;27.90;;;14.90;;
54923;SDS011;40825;52.270;20.984;2023-08-30T13:46:31;26.50;;;14.60;;
54923;SDS011;40825;52.270;20.984;2023-08-30T13:49:00;26.50;;;14.10;;
54923;SDS011;40825;52.270;20.984;2023-08-30T13:51:27;26.00;;;15.00;;
54923;SDS011;40825;52.270;20.984;2023-08-30T13:53:52;25.00;;;12.90;;
54923;SDS011;40825;52.270;20.984;2023-08-30T13:56:22;26.70;;;13.40;;
54923;SDS011;40825;52.270;20.984;2023-08-30T13:58:47;22.40;;;11.60;;
54923;SDS011;40825;52.270;20.984;2023-08-30T14:01:13;20.40;;;11.00;;
54923;SDS011;40825;52.270;20.984;2023-08-30T14:03:39;22.50;;;11.10;;
54923;SDS011;40825;52.270;20.984;2023-08-30T14:06:05;25.60;;;11.10;;
54923;SDS011;40825;52.270;20.984;2023-08-30T14:08:31;26.00;;;9.60;;
54923;SDS011;40825;52.270;20.984;2023-08-30T14:10:56;20.30;;;9.80;;
54923;SDS011;40825;52.270;20.984;2023-08-30T14:13:22;17.50;;;9.30;;
54923;SDS011;40825;52.270;20.984;2023-08-30T14:15:48;21.70;;;10.40;;
54923;SDS011;40825;52.270;20.984;2023-08-30T14:18:14;18.60;;;9.20;;
54923;SDS011;40825;52.270;20.984;2023-08-30T14:20:43;14.40;;;8.50;;
54923;SDS011;40825;52.270;20.984;2023-08-30T14:23:09;18.00;;;8.70;;
54923;SDS011;40825;52.270;20.984;2023-08-30T14:25:35;15.60;;;8.60;;
54923;SDS011;40825;52.270;20.984;2023-08-30T14:28:01;16.50;;;8.80;;
54923;SDS011;40825;52.270;20.984;2023-08-30T14:30:29;24.40;;;9.70;;
54923;SDS011;40825;52.270;20.984;2023-08-30T14:32:55;20.70;;;8.00;;